Time;durP1;ratioP1;P1;durP2;ratioP2;P2;SDS_P1;SDS_P2;PMS_P1;PMS_P2;Temp;Humidity;BMP_temperature;BMP_pressure;BME280_temperature;BME280_humidity;BME280_pressure;Samples;Min_cycle;Max_cycle;Signal;HPM_P1;HPM_P2
2022/03/17 05:22:36;;;;;;;91.70;37.63;;;;;;;8.19;100.00;100970.84;5129709;27;20153;-71
2022/03/17 05:25:04;;;;;;;93.82;37.08;;;;;;;8.20;100.00;100979.66;5130018;28;20043;-71
2022/03/17 05:27:30;;;;;;;92.00;37.03;;;;;;;8.19;100.00;100978.81;5129927;28;20035;-71
2022/03/17 05:29:56;;;;;;;93.50;38.28;;;;;;;8.22;100.00;100978.56;5129952;27;20024;-71
2022/03/17 05:32:22;;;;;;;92.35;38.20;;;;;;;8.26;100.00;100987.06;5129613;27;20395;-71
2022/03/17 05:34:48;;;;;;;90.22;37.75;;;;;;;8.14;100.00;100965.13;5144964;22;20042;-75
2022/03/17 05:37:13;;;;;;;89.00;36.35;;;;;;;8.30;100.00;100981.34;5126474;28;20131;-76
2022/03/17 05:39:40;;;;;;;92.50;35.35;;;;;;;8.30;100.00;100984.00;5112086;28;20107;-75
2022/03/17 05:42:06;;;;;;;98.18;37.00;;;;;;;8.30;100.00;100996.41;5111435;28;20035;-75
2022/03/17 05:44:33;;;;;;;92.32;36.67;;;;;;;8.34;100.00;101000.44;5110766;28;20086;-76
2022/03/17 05:46:58;;;;;;;95.70;39.92;;;;;;;8.31;100.00;100990.97;5111980;28;20492;-75
2022/03/17 05:49:24;;;;;;;80.80;33.28;;;;;;;8.34;100.00;101006.59;5110250;28;20039;-76
2022/03/17 05:51:50;;;;;;;88.47;36.67;;;;;;;8.36;100.00;101001.22;5111328;28;20501;-76
2022/03/17 05:54:15;;;;;;;79.45;34.17;;;;;;;8.34;100.00;101008.41;5109008;28;20044;-74
2022/03/17 05:56:41;;;;;;;89.28;35.30;;;;;;;8.29;100.00;101008.84;5107630;28;20388;-75
2022/03/17 05:59:07;;;;;;;85.63;35.55;;;;;;;8.36;100.00;101028.59;5108936;28;20044;-75
2022/03/17 06:01:32;;;;;;;86.78;35.72;;;;;;;8.37;100.00;101024.94;5108785;28;20028;-74
2022/03/17 06:03:58;;;;;;;81.28;35.50;;;;;;;8.36;100.00;101022.44;5108754;28;20090;-74
2022/03/17 06:06:23;;;;;;;89.53;38.65;;;;;;;8.36;100.00;101033.06;5107660;28;20032;-75
2022/03/17 06:08:49;;;;;;;90.03;37.40;;;;;;;8.34;100.00;101021.69;5108597;28;20027;-75
2022/03/17 06:11:14;;;;;;;87.68;37.78;;;;;;;8.36;100.00;101030.41;5108527;28;20068;-74
2022/03/17 06:13:43;;;;;;;87.45;37.50;;;;;;;8.37;100.00;101027.59;5108670;28;20066;-74
2022/03/17 06:16:09;;;;;;;86.53;35.38;;;;;;;8.35;100.00;101020.75;5107833;28;20525;-74
2022/03/17 06:18:35;;;;;;;100.18;37.17;;;;;;;8.34;100.00;101041.09;5093249;28;20035;-76
2022/03/17 06:21:01;;;;;;;89.72;38.97;;;;;;;8.27;100.00;101047.13;5109465;28;20039;-75
2022/03/17 06:23:26;;;;;;;88.70;38.28;;;;;;;8.37;100.00;101050.66;5109142;28;20503;-76
2022/03/17 06:25:53;;;;;;;87.57;37.17;;;;;;;8.39;100.00;101059.31;5111240;28;20040;-76
2022/03/17 06:28:19;;;;;;;81.25;34.47;;;;;;;8.34;100.00;101058.84;5110509;28;20055;-75
2022/03/17 06:30:44;;;;;;;106.68;42.75;;;;;;;8.39;100.00;101075.25;5108291;28;20523;-75
2022/03/17 06:33:10;;;;;;;98.22;41.42;;;;;;;8.38;100.00;101074.41;5097799;28;20040;-75
2022/03/17 06:35:36;;;;;;;101.00;44.40;;;;;;;8.37;100.00;101079.88;5093288;28;20416;-74
2022/03/17 06:38:05;;;;;;;107.40;43.22;;;;;;;8.38;100.00;101089.50;5094565;28;20424;-75
2022/03/17 06:40:31;;;;;;;112.10;44.58;;;;;;;8.38;100.00;101095.66;5093564;28;20128;-74
2022/03/17 06:42:57;;;;;;;97.45;43.88;;;;;;;8.37;100.00;101109.91;5110107;28;20118;-74
2022/03/17 06:45:24;;;;;;;103.65;43.67;;;;;;;8.38;100.00;101097.47;5094529;28;20059;-75
2022/03/17 06:47:50;;;;;;;102.50;42.45;;;;;;;8.41;100.00;101105.13;5093233;28;20047;-74
2022/03/17 06:50:17;;;;;;;110.70;43.30;;;;;;;8.45;100.00;101111.03;5094348;28;20397;-74
2022/03/17 06:52:43;;;;;;;109.80;43.35;;;;;;;8.45;100.00;101116.34;5094168;28;20560;-74
2022/03/17 06:55:10;;;;;;;107.53;41.88;;;;;;;8.48;100.00;101124.03;5094437;28;20074;-74
2022/03/17 06:57:35;;;;;;;117.38;43.25;;;;;;;8.47;100.00;101128.50;5094542;28;20032;-75
2022/03/17 07:00:07;;;;;;;107.65;45.17;;;;;;;8.46;100.00;101131.28;5094391;28;20032;-75
2022/03/17 07:02:33;;;;;;;113.45;45.20;;;;;;;8.52;100.00;101128.09;5094254;28;20111;-75
2022/03/17 07:05:01;;;;;;;104.93;44.40;;;;;;;8.51;100.00;101131.72;5092908;28;20070;-71
2022/03/17 07:07:27;;;;;;;;;;;;;;;8.56;100.00;101137.47;5093947;28;20048;-72
2022/03/17 07:09:53;;;;;;;105.82;43.33;;;;;;;8.57;100.00;101136.47;5094087;28;19934;-73
2022/03/17 07:12:19;;;;;;;111.97;44.92;;;;;;;8.59;100.00;101140.66;5093449;28;20039;-72
2022/03/17 07:14:44;;;;;;;110.45;41.97;;;;;;;8.60;100.00;101142.34;5093607;28;20115;-72
2022/03/17 07:17:10;;;;;;;99.80;41.88;;;;;;;8.59;100.00;101134.50;5092507;28;20040;-71
2022/03/17 07:19:36;;;;;;;109.15;41.97;;;;;;;8.66;100.00;101133.81;5093556;28;20042;-71
2022/03/17 07:22:07;;;;;;;105.82;41.50;;;;;;;8.67;100.00;101138.19;5093331;28;20028;-71
2022/03/17 07:24:32;;;;;;;118.18;45.60;;;;;;;8.72;100.00;101140.38;5093603;28;20047;-72
2022/03/17 07:26:59;;;;;;;109.25;45.97;;;;;;;8.73;100.00;101135.91;5093352;28;20036;-71
2022/03/17 07:29:25;;;;;;;113.68;45.05;;;;;;;8.78;100.00;101145.16;5093330;28;20122;-72
2022/03/17 07:31:56;;;;;;;103.35;41.78;;;;;;;8.75;100.00;101140.13;5091649;28;20384;-71
2022/03/17 07:34:24;;;;;;;103.85;42.45;;;;;;;8.79;100.00;101144.16;5093565;28;20090;-72
2022/03/17 07:36:51;;;;;;;104.32;40.80;;;;;;;8.79;100.00;101145.97;5093173;28;20396;-71
2022/03/17 07:39:17;;;;;;;113.53;44.37;;;;;;;8.87;100.00;101148.81;5093539;28;20036;-71
2022/03/17 07:41:43;;;;;;;103.57;42.03;;;;;;;8.85;100.00;101154.22;5092988;28;20690;-71
2022/03/17 07:44:09;;;;;;;97.82;39.95;;;;;;;8.84;100.00;101152.56;5090805;28;20071;-69
2022/03/17 07:47:07;;;;;;;93.40;39.08;;;;;;;8.94;100.00;101156.06;5037924;28;20525;-69
2022/03/17 07:49:40;;;;;;;93.15;39.17;;;;;;;8.91;100.00;101150.19;5091775;28;20036;-70
2022/03/17 07:52:07;;;;;;;99.47;42.08;;;;;;;8.90;100.00;101157.31;5091390;28;20481;-70
2022/03/17 07:54:33;;;;;;;91.03;37.35;;;;;;;8.96;100.00;101167.38;5093119;28;20027;-70
2022/03/17 07:57:00;;;;;;;91.45;39.20;;;;;;;9.02;100.00;101173.97;5092210;28;20028;-70
2022/03/17 07:59:27;;;;;;;85.90;36.70;;;;;;;9.07;100.00;101177.03;5074911;28;20115;-70
2022/03/17 08:01:53;;;;;;;92.88;39.00;;;;;;;9.00;100.00;101175.06;5092537;28;20285;-69
2022/03/17 08:04:19;;;;;;;91.00;40.13;;;;;;;8.96;100.00;101158.56;5092834;28;20089;-71
2022/03/17 08:06:44;;;;;;;91.90;40.60;;;;;;;9.15;100.00;101176.34;5092817;28;20036;-70
2022/03/17 08:09:10;;;;;;;100.63;42.03;;;;;;;9.20;100.00;101176.75;5092929;28;20083;-70
2022/03/17 08:11:36;;;;;;;100.35;41.33;;;;;;;9.18;100.00;101176.88;5094358;28;20065;-72
2022/03/17 08:14:01;;;;;;;100.63;40.67;;;;;;;9.29;100.00;101183.03;5094395;28;20036;-69
2022/03/17 08:16:27;;;;;;;108.47;41.40;;;;;;;9.31;100.00;101186.38;5094385;28;20039;-71
2022/03/17 08:18:53;;;;;;;93.57;39.20;;;;;;;9.31;100.00;101183.72;5091407;28;20516;-70
2022/03/17 08:21:18;;;;;;;103.88;42.70;;;;;;;9.36;99.61;101186.78;5091192;28;20396;-72
2022/03/17 08:23:45;;;;;;;103.82;44.63;;;;;;;9.32;99.49;101188.88;5090847;28;20036;-70
2022/03/17 08:26:12;;;;;;;106.63;42.72;;;;;;;9.35;100.00;101196.59;5092121;28;20304;-70
2022/03/17 08:28:38;;;;;;;100.38;41.75;;;;;;;9.35;100.00;101193.94;5092244;28;20382;-70
2022/03/17 08:31:04;;;;;;;103.72;41.85;;;;;;;9.33;99.30;101189.75;5092051;28;20085;-70
2022/03/17 08:33:30;;;;;;;105.70;44.60;;;;;;;9.44;99.76;101200.22;5091855;28;20043;-69
2022/03/17 08:35:55;;;;;;;96.93;44.45;;;;;;;9.46;99.64;101195.59;5090727;28;20032;-70
2022/03/17 08:38:21;;;;;;;108.80;45.50;;;;;;;9.51;99.18;101206.63;5092099;28;20039;-69
2022/03/17 08:40:47;;;;;;;96.47;41.58;;;;;;;9.58;98.50;101206.91;5090973;28;20032;-70
2022/03/17 08:43:13;;;;;;;95.10;40.85;;;;;;;9.67;98.75;101206.06;5091624;28;20489;-70
2022/03/17 08:51:12;;;;;;;108.57;42.25;;;;;;;9.76;98.47;101210.50;5091713;28;20054;-70
2022/03/17 08:53:38;;;;;;;97.38;42.72;;;;;;;9.84;98.02;101221.25;5091795;28;20046;-69
2022/03/17 08:56:05;;;;;;;102.53;43.00;;;;;;;9.92;98.00;101223.22;5090294;28;20118;-70
2022/03/17 08:58:30;;;;;;;104.32;41.53;;;;;;;9.86;97.30;101226.44;5091639;28;20035;-70
2022/03/17 09:01:00;;;;;;;90.43;41.67;;;;;;;9.86;96.80;101221.97;5091727;28;20078;-70
2022/03/17 09:03:26;;;;;;;88.38;41.28;;;;;;;9.91;97.87;101227.69;5091468;28;20040;-70
2022/03/17 09:05:52;;;;;;;92.70;43.53;;;;;;;9.86;96.84;101235.28;5091572;28;20036;-70
2022/03/17 09:08:18;;;;;;;89.28;40.58;;;;;;;9.71;97.05;101234.03;5091597;28;20458;-70
2022/03/17 09:10:43;;;;;;;102.78;41.63;;;;;;;9.87;97.24;101236.09;5091480;28;20028;-70
2022/03/17 09:13:11;;;;;;;100.47;43.58;;;;;;;9.83;97.67;101242.69;5091385;28;20550;-70
2022/03/17 09:15:40;;;;;;;98.03;44.55;;;;;;;9.87;97.31;101238.78;5091242;28;20043;-70
2022/03/17 09:18:11;;;;;;;102.95;44.30;;;;;;;9.86;97.53;101240.59;5091547;28;20496;-70
2022/03/17 09:20:39;;;;;;;110.28;45.67;;;;;;;9.90;97.22;101241.97;5091565;28;20043;-70
2022/03/17 09:23:05;;;;;;;96.95;43.22;;;;;;;9.86;98.15;101248.56;5091306;28;20093;-70
2022/03/17 09:25:33;;;;;;;102.07;44.92;;;;;;;9.91;97.51;101249.00;5091438;28;20035;-70
2022/03/17 09:27:59;;;;;;;95.97;41.60;;;;;;;10.04;97.11;101256.63;5091593;28;20133;-69
2022/03/17 09:30:24;;;;;;;97.32;41.05;;;;;;;10.07;96.80;101259.84;5091509;28;20074;-71
2022/03/17 09:32:54;;;;;;;102.53;43.58;;;;;;;10.04;96.35;101264.59;5090336;28;20115;-70
2022/03/17 09:35:21;;;;;;;102.88;42.95;;;;;;;10.12;96.72;101267.41;5091165;28;20182;-70
2022/03/17 09:37:47;;;;;;;100.15;43.88;;;;;;;10.19;96.50;101265.84;5091359;28;20063;-70
2022/03/17 09:40:16;;;;;;;98.03;42.78;;;;;;;10.16;95.65;101266.13;5091523;28;20105;-70
2022/03/17 09:42:41;;;;;;;97.78;41.85;;;;;;;10.19;95.49;101265.84;5092354;28;20031;-70
2022/03/17 09:45:08;;;;;;;92.07;43.22;;;;;;;10.29;95.02;101264.00;5056674;28;20047;-70
2022/03/17 09:47:41;;;;;;;99.10;41.78;;;;;;;10.18;94.77;101266.00;5091411;28;20111;-70
2022/03/17 09:50:09;;;;;;;99.00;41.00;;;;;;;10.25;94.62;101264.44;5091869;28;20032;-70
2022/03/17 09:52:39;;;;;;;98.40;42.25;;;;;;;10.36;95.04;101264.25;5091141;28;20051;-70
2022/03/17 09:55:09;;;;;;;101.07;43.97;;;;;;;10.34;94.60;101271.56;5091524;28;20619;-70
2022/03/17 09:57:35;;;;;;;94.28;43.15;;;;;;;10.47;93.80;101273.88;5091441;28;20043;-70
2022/03/17 10:00:01;;;;;;;88.35;40.63;;;;;;;10.47;94.71;101280.03;5107270;28;20028;-70
2022/03/17 10:02:26;;;;;;;92.57;43.58;;;;;;;10.49;94.67;101288.72;5090828;28;20037;-70
2022/03/17 10:04:52;;;;;;;95.45;42.50;;;;;;;10.48;93.28;101295.03;5090000;28;20031;-70
2022/03/17 10:07:21;;;;;;;99.15;40.05;;;;;;;10.51;93.12;101292.09;5090471;28;20024;-70
2022/03/17 10:09:48;;;;;;;86.93;40.15;;;;;;;10.57;91.04;101288.00;5095197;28;20040;-70
2022/03/17 10:12:17;;;;;;;93.03;40.83;;;;;;;10.59;90.46;101308.16;5094491;28;20028;-70
2022/03/17 10:14:45;;;;;;;87.57;40.25;;;;;;;10.73;90.32;101306.84;5094819;28;20485;-70
2022/03/17 10:17:39;;;;;;;88.53;40.17;;;;;;;10.75;89.56;101306.69;5094952;28;20032;-70
2022/03/17 10:20:29;;;;;;;97.15;40.15;;;;;;;10.79;88.03;101306.25;5094775;28;20024;-70
2022/03/17 10:22:56;;;;;;;87.78;40.42;;;;;;;10.85;88.03;101312.81;5094901;28;20028;-70
2022/03/17 10:25:27;;;;;;;110.57;44.72;;;;;;;10.82;87.38;101311.28;5094551;28;20081;-69
2022/03/17 10:27:56;;;;;;;93.85;41.38;;;;;;;10.93;86.74;101328.06;5094839;28;20040;-70
2022/03/17 10:30:36;;;;;;;94.70;40.03;;;;;;;10.99;83.92;101322.97;5094599;28;20043;-70
2022/03/17 10:33:28;;;;;;;94.43;39.83;;;;;;;10.91;83.90;101320.22;5094683;28;20036;-70
2022/03/17 10:35:54;;;;;;;79.50;37.25;;;;;;;10.92;84.64;101321.03;5093232;28;20039;-70
2022/03/17 10:38:25;;;;;;;90.05;40.67;;;;;;;10.87;83.97;101325.00;5093552;28;20089;-70
2022/03/17 10:41:11;;;;;;;89.50;40.28;;;;;;;10.85;82.53;101320.81;5094673;28;20130;-70
2022/03/17 10:43:42;;;;;;;86.75;38.35;;;;;;;10.81;81.11;101320.25;5093749;28;20032;-70
2022/03/17 10:46:21;;;;;;;89.80;38.90;;;;;;;10.75;81.10;101310.19;5094487;28;20051;-70
2022/03/17 10:48:58;;;;;;;94.10;39.53;;;;;;;10.90;81.98;101329.19;5093191;28;20188;-70
2022/03/17 10:51:30;;;;;;;91.80;38.92;;;;;;;11.03;80.92;101323.50;5094103;28;20042;-71
2022/03/17 10:54:08;;;;;;;83.35;37.70;;;;;;;11.13;81.43;101322.44;5094071;28;20298;-70
2022/03/17 10:56:36;;;;;;;95.78;40.50;;;;;;;11.17;82.24;101327.50;5094036;28;20114;-70
2022/03/17 10:59:02;;;;;;;91.47;40.80;;;;;;;11.05;81.99;101325.03;5093386;28;20040;-70
2022/03/17 11:01:36;;;;;;;89.57;39.05;;;;;;;11.22;82.44;101325.22;5092615;28;20068;-70
2022/03/17 11:04:03;;;;;;;89.47;40.80;;;;;;;11.29;83.42;101331.63;5094109;28;20069;-70
2022/03/17 11:06:29;;;;;;;90.95;39.85;;;;;;;11.40;81.34;101334.88;5094093;28;20530;-70
2022/03/17 11:08:59;;;;;;;93.72;40.80;;;;;;;11.58;82.92;101332.22;5092819;28;20060;-70
2022/03/17 11:11:26;;;;;;;91.63;39.15;;;;;;;11.73;80.15;101345.00;5093839;28;20024;-71
2022/03/17 11:13:52;;;;;;;91.13;40.80;;;;;;;11.93;79.82;101341.19;5094148;28;20082;-70
2022/03/17 11:16:21;;;;;;;94.57;41.83;;;;;;;12.05;80.04;101345.28;5094264;28;20035;-70
2022/03/17 11:18:48;;;;;;;90.10;43.03;;;;;;;12.34;77.96;101339.66;5092512;28;20046;-70
2022/03/17 11:21:20;;;;;;;96.53;42.50;;;;;;;12.47;77.96;101349.91;5094562;28;20097;-70
2022/03/17 11:24:07;;;;;;;92.03;39.60;;;;;;;12.88;75.81;101353.59;5093551;28;20032;-70
2022/03/17 11:26:37;;;;;;;;;;;;;;;12.84;77.62;101352.22;5094566;28;20032;-70
2022/03/17 11:29:10;;;;;;;83.03;35.70;;;;;;;13.00;73.46;101351.47;5092845;28;19958;-70
2022/03/17 11:31:58;;;;;;;82.50;39.50;;;;;;;12.63;77.50;101352.66;5093399;28;20063;-70
2022/03/17 11:35:06;;;;;;;80.70;38.83;;;;;;;12.90;77.11;101356.94;5092036;28;20125;-70
2022/03/17 11:37:32;;;;;;;74.50;35.40;;;;;;;13.32;74.70;101372.16;5083267;22;20040;-74
2022/03/17 11:40:03;;;;;;;73.20;35.43;;;;;;;13.64;72.06;101367.88;5073103;28;20115;-74
2022/03/17 11:42:40;;;;;;;82.78;36.42;;;;;;;13.92;70.50;101368.38;5072832;28;20104;-74
2022/03/17 11:45:15;;;;;;;70.97;34.53;;;;;;;13.61;69.24;101370.84;5073032;28;20028;-73
2022/03/17 11:47:45;;;;;;;77.07;35.67;;;;;;;13.37;69.96;101369.84;5073034;28;20503;-73
2022/03/17 11:50:40;;;;;;;81.45;37.20;;;;;;;13.35;71.29;101376.34;5072886;28;20511;-72
2022/03/17 11:53:14;;;;;;;76.53;36.38;;;;;;;13.36;71.09;101370.81;5072574;28;20659;-71
2022/03/17 11:55:43;;;;;;;80.72;37.25;;;;;;;13.00;72.96;101379.06;5072728;28;20033;-70
2022/03/17 11:58:19;;;;;;;85.82;39.00;;;;;;;12.70;73.79;101379.59;5072756;28;20374;-72
2022/03/17 12:01:11;;;;;;;78.15;37.75;;;;;;;12.54;74.89;101379.50;5072984;28;20032;-72
2022/03/17 12:03:51;;;;;;;83.03;37.42;;;;;;;12.47;73.25;101384.66;5063725;28;20056;-71
2022/03/17 12:06:21;;;;;;;84.13;38.63;;;;;;;12.70;74.21;101391.09;5072720;28;20486;-71
2022/03/17 12:08:50;;;;;;;83.97;36.85;;;;;;;12.82;72.43;101385.50;5072382;28;20040;-72
2022/03/17 12:11:17;;;;;;;87.28;42.40;;;;;;;12.74;72.80;101397.81;5072326;28;20405;-74
2022/03/17 12:14:24;;;;;;;93.35;41.80;;;;;;;12.65;71.89;101397.94;5072069;28;20034;-74
2022/03/17 12:17:06;;;;;;;94.47;39.85;;;;;;;12.64;72.85;101396.25;5072397;28;20489;-72
2022/03/17 12:19:39;;;;;;;97.57;40.83;;;;;;;12.54;68.83;101393.72;5072356;28;20112;-73
2022/03/17 12:22:11;;;;;;;88.32;40.95;;;;;;;12.46;70.36;101405.19;5071916;28;20036;-73
2022/03/17 12:24:51;;;;;;;91.60;40.42;;;;;;;12.38;70.85;101407.78;5054281;28;20397;-73
2022/03/17 12:27:48;;;;;;;86.35;39.42;;;;;;;12.65;66.58;101408.63;5072045;28;20064;-71
2022/03/17 12:30:15;;;;;;;84.28;38.30;;;;;;;12.34;67.93;101416.28;5070945;28;20048;-75
2022/03/17 12:32:46;;;;;;;85.70;38.80;;;;;;;12.49;68.22;101414.72;5072105;28;20036;-73
2022/03/17 12:35:12;;;;;;;83.40;38.08;;;;;;;12.43;65.51;101410.84;5072591;28;20043;-72
2022/03/17 12:37:43;;;;;;;79.10;36.92;;;;;;;12.37;66.39;101408.78;5071973;28;20025;-72
2022/03/17 12:40:13;;;;;;;87.93;39.33;;;;;;;12.37;66.25;101416.81;5072128;28;20028;-72
2022/03/17 12:42:44;;;;;;;87.75;39.05;;;;;;;12.23;69.09;101412.03;5071679;28;20029;-73
2022/03/17 12:45:13;;;;;;;92.95;40.40;;;;;;;12.26;69.67;101417.09;5072071;28;20044;-72
2022/03/17 12:47:46;;;;;;;81.43;38.47;;;;;;;12.30;68.30;101423.78;5054107;28;20166;-72
2022/03/17 12:50:18;;;;;;;92.38;38.20;;;;;;;12.45;66.94;101419.56;5072010;28;20032;-72
2022/03/17 12:52:45;;;;;;;83.72;36.10;;;;;;;12.16;64.85;101422.50;5071868;28;20426;-73
2022/03/17 12:55:13;;;;;;;83.57;35.60;;;;;;;12.40;63.72;101418.34;5071999;28;20040;-73
2022/03/17 12:57:39;;;;;;;;;;;;;;;12.42;63.46;101413.66;5072597;28;20067;-73
2022/03/17 13:00:07;;;;;;;79.85;34.58;;;;;;;12.43;63.31;101432.22;5072253;28;20404;-73
2022/03/17 13:02:32;;;;;;;;;;;;;;;12.18;63.03;101428.50;5071779;28;20043;-70
2022/03/17 13:06:52;;;;;;;78.53;33.97;;;;;;;12.26;64.26;101434.91;5071896;28;19917;-71
2022/03/17 13:07:46;;;;;;;79.68;34.72;;;;;;;12.39;65.46;101435.38;5071426;28;20112;-69
2022/03/17 13:10:11;;;;;;;84.30;35.72;;;;;;;12.39;64.41;101430.88;5071715;28;20060;-71
2022/03/17 13:15:24;;;;;;;89.60;38.55;;;;;;;12.15;64.49;101425.34;5071483;28;20108;-72
2022/03/17 13:18:01;;;;;;;86.50;39.28;;;;;;;12.10;65.54;101430.28;5071588;28;20036;-73
2022/03/17 13:20:28;;;;;;;93.32;40.58;;;;;;;12.12;66.10;101431.81;5071542;28;20520;-72
2022/03/17 13:23:03;;;;;;;95.50;37.30;;;;;;;12.27;62.92;101441.97;5070996;28;20111;-72
2022/03/17 13:25:31;;;;;;;88.97;39.80;;;;;;;11.95;63.87;101443.34;5071534;28;20041;-73
2022/03/17 13:27:59;;;;;;;91.35;41.15;;;;;;;11.84;66.18;101430.22;5071520;28;20477;-73
2022/03/17 13:30:26;;;;;;;93.25;41.45;;;;;;;12.03;64.17;101453.28;5036962;28;20484;-73
2022/03/17 13:33:01;;;;;;;91.97;42.60;;;;;;;11.84;63.98;101446.25;5071141;28;20033;-73
2022/03/17 13:35:30;;;;;;;90.30;40.75;;;;;;;11.75;65.18;101449.81;5071411;28;20120;-73
2022/03/17 13:38:09;;;;;;;96.45;39.20;;;;;;;11.87;64.15;101456.66;5053336;28;20369;-73
2022/03/17 13:40:51;;;;;;;91.97;40.88;;;;;;;11.77;64.69;101463.84;5071355;28;20105;-73
2022/03/17 13:43:29;;;;;;;82.80;36.35;;;;;;;11.77;65.15;101466.50;5073243;28;20036;-73
2022/03/17 13:45:56;;;;;;;80.47;37.17;;;;;;;11.56;66.13;101470.28;5075194;28;20450;-71
2022/03/17 13:48:24;;;;;;;83.38;37.88;;;;;;;11.49;66.93;101469.22;5075436;28;20090;-72
2022/03/17 13:50:56;;;;;;;86.07;35.67;;;;;;;11.68;66.07;101469.09;5074926;28;20086;-71
2022/03/17 13:53:30;;;;;;;83.63;36.15;;;;;;;11.71;65.76;101467.94;5074874;28;20477;-70
2022/03/17 13:56:04;;;;;;;86.18;38.15;;;;;;;11.61;66.72;101468.03;5057307;28;20083;-71
2022/03/17 13:58:32;;;;;;;92.03;37.85;;;;;;;11.45;70.66;101478.50;5075134;28;20055;-71
2022/03/17 14:01:18;;;;;;;89.30;38.85;;;;;;;11.45;70.24;101483.84;5057058;28;20016;-73
2022/03/17 14:04:02;;;;;;;89.30;38.78;;;;;;;11.20;71.61;101484.53;5074626;28;20068;-73
2022/03/17 14:06:32;;;;;;;90.75;38.22;;;;;;;11.04;73.53;101486.00;5074758;28;20107;-73
2022/03/17 14:09:02;;;;;;;94.40;38.65;;;;;;;10.95;75.88;101497.53;5074910;28;20372;-73
2022/03/17 14:11:31;;;;;;;88.15;37.30;;;;;;;10.97;76.89;101498.25;5074719;28;20469;-73
2022/03/17 14:14:00;;;;;;;84.68;34.83;;;;;;;10.95;76.66;101502.84;5074514;28;20200;-72
2022/03/17 14:16:27;;;;;;;96.75;36.40;;;;;;;10.79;78.26;101508.81;5074553;28;20029;-72
2022/03/17 14:18:54;;;;;;;85.82;36.45;;;;;;;10.86;78.65;101501.91;5074571;28;20551;-71
2022/03/17 14:21:21;;;;;;;83.45;36.78;;;;;;;10.77;79.59;101513.44;5074484;28;20036;-74
2022/03/17 14:26:35;;;;;;;81.55;34.13;;;;;;;10.55;82.06;101522.56;5074452;28;20046;-73
2022/03/17 14:29:02;;;;;;;81.65;33.70;;;;;;;10.41;83.43;101525.69;5074385;28;20036;-72
2022/03/17 14:31:30;;;;;;;72.63;30.23;;;;;;;10.33;84.12;101530.88;5074361;28;20393;-73
2022/03/17 14:33:58;;;;;;;71.28;28.80;;;;;;;10.27;84.62;101526.13;5056111;28;20516;-71
2022/03/17 14:36:24;;;;;;;77.68;31.40;;;;;;;10.29;86.61;101532.13;5074054;28;20035;-73
2022/03/17 14:38:53;;;;;;;64.68;26.75;;;;;;;10.16;86.83;101537.69;5074169;28;20102;-71
2022/03/17 14:41:20;;;;;;;66.72;27.38;;;;;;;10.26;85.84;101535.94;5039931;28;20477;-71
2022/03/17 14:43:48;;;;;;;63.20;25.77;;;;;;;10.06;87.62;101542.19;5073733;28;20040;-71
2022/03/17 14:46:14;;;;;;;;;;;;;;;10.14;86.41;101541.50;5074405;28;20286;-73
2022/03/17 14:48:41;;;;;;;57.85;24.50;;;;;;;10.05;87.05;101536.03;5074224;28;19919;-73
2022/03/17 14:51:08;;;;;;;62.78;25.52;;;;;;;9.98;87.96;101544.72;5073795;28;20520;-73
2022/03/17 14:53:34;;;;;;;62.75;25.60;;;;;;;9.81;88.95;101542.72;5073243;28;20031;-73
2022/03/17 14:56:09;;;;;;;62.92;25.02;;;;;;;9.69;88.61;101542.81;5073581;28;20047;-73
2022/03/17 14:58:37;;;;;;;62.92;26.13;;;;;;;9.78;88.17;101551.81;5074023;28;20028;-73
2022/03/17 15:01:02;;;;;;;61.58;23.20;;;;;;;9.66;88.68;101556.41;5073998;28;20029;-73
2022/03/17 15:03:28;;;;;;;58.83;23.33;;;;;;;9.70;87.50;101552.47;5073886;28;20405;-72
2022/03/17 15:05:54;;;;;;;59.03;23.20;;;;;;;9.55;88.71;101559.16;5074627;28;20040;-73
2022/03/17 15:08:19;;;;;;;46.95;20.10;;;;;;;9.60;87.06;101559.59;5074033;28;20040;-73
2022/03/17 15:10:45;;;;;;;51.85;20.05;;;;;;;9.62;87.59;101559.47;5055853;28;20047;-71
2022/03/17 15:13:10;;;;;;;60.08;20.52;;;;;;;9.48;87.26;101568.66;5073387;28;20082;-73
2022/03/17 15:15:36;;;;;;;49.65;20.42;;;;;;;9.51;86.41;101566.53;5073349;28;20041;-73
2022/03/17 15:18:03;;;;;;;52.88;20.25;;;;;;;9.44;87.37;101568.06;5073715;28;20025;-71
2022/03/17 15:20:29;;;;;;;50.78;21.05;;;;;;;9.49;86.08;101575.66;5055998;28;20040;-73
2022/03/17 15:22:54;;;;;;;56.25;21.65;;;;;;;9.51;86.16;101568.38;5073497;28;20044;-72
2022/03/17 15:25:21;;;;;;;55.60;21.40;;;;;;;9.49;86.11;101575.66;5073456;28;20035;-73
2022/03/17 15:30:36;;;;;;;50.40;20.13;;;;;;;9.27;87.89;101575.84;5073183;28;20065;-72
2022/03/17 15:33:03;;;;;;;49.28;21.13;;;;;;;9.39;85.58;101583.59;5072922;28;20037;-73
2022/03/17 15:35:30;;;;;;;48.88;19.65;;;;;;;9.35;86.97;101584.84;5073125;28;20047;-72
2022/03/17 15:37:56;;;;;;;50.17;22.20;;;;;;;9.31;85.79;101583.41;5072892;28;20039;-73
2022/03/17 15:40:24;;;;;;;50.83;20.10;;;;;;;9.35;86.46;101590.16;5072962;28;20271;-73
2022/03/17 15:42:50;;;;;;;;;;;;;;;9.35;85.95;101581.34;5073124;28;20033;-73
2022/03/17 15:45:15;;;;;;;46.97;18.98;;;;;;;9.41;86.14;101594.94;5073131;28;19961;-73
2022/03/17 15:47:41;;;;;;;51.78;20.05;;;;;;;9.44;85.06;101593.81;5073120;28;20037;-73
2022/03/17 15:50:08;;;;;;;57.10;22.05;;;;;;;9.40;85.91;101595.09;5073217;28;20043;-72
2022/03/17 15:52:34;;;;;;;61.95;22.42;;;;;;;9.35;86.94;101594.63;5055073;28;20036;-72
2022/03/17 15:55:01;;;;;;;55.85;24.10;;;;;;;9.33;85.48;101597.44;5073264;28;20032;-73
2022/03/17 15:57:27;;;;;;;52.88;20.75;;;;;;;9.31;85.58;101603.84;5054736;28;20032;-72
2022/03/17 15:59:53;;;;;;;52.90;21.33;;;;;;;9.23;86.22;101600.03;5055293;28;20501;-71
2022/03/17 16:02:18;;;;;;;50.88;22.05;;;;;;;9.30;85.59;101610.13;5072254;28;20028;-72
2022/03/17 16:04:45;;;;;;;50.72;21.33;;;;;;;9.22;87.29;101614.28;5072760;28;20040;-73
2022/03/17 16:07:11;;;;;;;52.92;20.88;;;;;;;9.19;86.90;101621.66;5072462;28;20108;-72
2022/03/17 16:15:06;;;;;;;54.00;22.42;;;;;;;9.24;86.14;101624.78;5072500;28;20116;-73
2022/03/17 16:17:32;;;;;;;51.88;22.00;;;;;;;9.12;86.70;101629.31;5072338;28;20118;-72
2022/03/17 16:19:57;;;;;;;56.65;22.60;;;;;;;9.15;87.15;101637.06;5054411;28;20504;-72
2022/03/17 16:22:24;;;;;;;53.75;22.35;;;;;;;9.09;86.65;101632.25;5054197;28;20519;-72
2022/03/17 16:24:49;;;;;;;53.45;23.92;;;;;;;9.02;87.10;101635.56;5072058;28;20103;-73
2022/03/17 16:27:15;;;;;;;49.03;22.13;;;;;;;9.00;88.75;101649.00;5071925;28;20170;-71
2022/03/17 16:29:41;;;;;;;54.53;24.38;;;;;;;8.95;88.64;101638.75;5072182;28;20043;-71
2022/03/17 16:32:10;;;;;;;58.42;25.55;;;;;;;9.00;88.60;101645.47;5071666;28;20218;-73
2022/03/17 16:34:36;;;;;;;58.38;24.77;;;;;;;9.00;89.35;101648.13;5054032;28;20039;-71
2022/03/17 16:37:04;;;;;;;56.35;22.42;;;;;;;8.97;88.42;101641.28;5054353;28;20158;-70
2022/03/17 16:39:30;;;;;;;;;;;;;;;9.05;88.50;101659.22;5072823;28;20036;-72
2022/03/17 16:41:56;;;;;;;52.97;22.73;;;;;;;9.12;88.63;101658.56;5071593;28;19916;-73
2022/03/17 16:44:23;;;;;;;58.92;22.13;;;;;;;9.04;88.39;101668.19;5072000;28;20098;-71
2022/03/17 16:46:49;;;;;;;54.35;23.85;;;;;;;9.01;89.48;101668.44;5071986;28;20040;-71
2022/03/17 16:49:15;;;;;;;54.10;23.40;;;;;;;9.05;87.96;101669.84;5071818;28;20048;-72
2022/03/17 16:51:40;;;;;;;55.53;23.80;;;;;;;8.86;90.14;101674.03;5071775;28;20033;-71
2022/03/17 16:54:10;;;;;;;57.55;24.38;;;;;;;8.90;88.86;101670.16;5054044;28;20032;-71
2022/03/17 16:56:35;;;;;;;64.15;26.55;;;;;;;8.95;90.79;101683.09;5054106;28;20036;-72
2022/03/17 16:59:01;;;;;;;57.58;24.52;;;;;;;8.90;91.23;101683.47;5071851;28;20112;-73
2022/03/17 17:01:27;;;;;;;57.35;25.40;;;;;;;8.92;90.94;101688.63;5054131;28;20036;-72